sensor_id;sensor_type;location;lat;lon;timestamp;pressure;altitude;pressure_sealevel;temperature;humidity
57594;BME280;43423;46.510;6.686;2023-03-25T00:00:32;96444.66;;;8.48;86.81
57594;BME280;43423;46.510;6.686;2023-03-25T00:03:19;96446.25;;;8.31;87.52
57594;BME280;43423;46.510;6.686;2023-03-25T00:05:46;96458.88;;;8.37;88.07
57594;BME280;43423;46.510;6.686;2023-03-25T00:08:12;96450.06;;;8.24;87.69
57594;BME280;43423;46.510;6.686;2023-03-25T00:10:37;96458.75;;;8.23;86.01
57594;BME280;43423;46.510;6.686;2023-03-25T00:13:03;96461.84;;;8.16;86.56
57594;BME280;43423;46.510;6.686;2023-03-25T00:15:30;96448.53;;;8.32;87.91
57594;BME280;43423;46.510;6.686;2023-03-25T00:18:01;96456.25;;;8.43;89.75
57594;BME280;43423;46.510;6.686;2023-03-25T00:20:27;96447.56;;;8.45;90.30
57594;BME280;43423;46.510;6.686;2023-03-25T00:22:53;96447.88;;;8.47;90.20
57594;BME280;43423;46.510;6.686;2023-03-25T00:25:19;96453.13;;;8.59;90.14
57594;BME280;43423;46.510;6.686;2023-03-25T00:27:48;96438.44;;;8.48;90.35
57594;BME280;43423;46.510;6.686;2023-03-25T00:30:16;96438.59;;;8.44;90.44
57594;BME280;43423;46.510;6.686;2023-03-25T00:32:42;96424.88;;;8.44;89.47
57594;BME280;43423;46.510;6.686;2023-03-25T00:35:10;96446.16;;;8.16;90.80
57594;BME280;43423;46.510;6.686;2023-03-25T00:37:37;96434.44;;;8.16;88.08
57594;BME280;43423;46.510;6.686;2023-03-25T00:40:03;96430.44;;;8.26;89.04
57594;BME280;43423;46.510;6.686;2023-03-25T00:42:30;96435.28;;;8.31;86.94
57594;BME280;43423;46.510;6.686;2023-03-25T00:44:55;96426.06;;;8.52;86.65
57594;BME280;43423;46.510;6.686;2023-03-25T00:47:21;96428.22;;;8.48;85.21
57594;BME280;43423;46.510;6.686;2023-03-25T00:49:48;96439.31;;;8.54;83.49
57594;BME280;43423;46.510;6.686;2023-03-25T00:52:14;96426.03;;;8.61;84.10
57594;BME280;43423;46.510;6.686;2023-03-25T00:54:41;96427.84;;;8.64;82.77
57594;BME280;43423;46.510;6.686;2023-03-25T00:57:06;96419.41;;;8.68;85.69
57594;BME280;43423;46.510;6.686;2023-03-25T00:59:32;96405.28;;;8.70;85.43
57594;BME280;43423;46.510;6.686;2023-03-25T01:01:57;96412.44;;;8.67;84.17
57594;BME280;43423;46.510;6.686;2023-03-25T01:04:23;96396.84;;;8.73;85.46
57594;BME280;43423;46.510;6.686;2023-03-25T01:06:49;96390.81;;;8.69;85.60
57594;BME280;43423;46.510;6.686;2023-03-25T01:09:18;96399.47;;;8.67;84.43
57594;BME280;43423;46.510;6.686;2023-03-25T01:11:46;96402.81;;;8.72;81.97
57594;BME280;43423;46.510;6.686;2023-03-25T01:14:16;96386.78;;;8.79;82.30
57594;BME280;43423;46.510;6.686;2023-03-25T01:16:43;96380.53;;;8.79;84.18
57594;BME280;43423;46.510;6.686;2023-03-25T01:19:09;96381.63;;;8.72;85.39
57594;BME280;43423;46.510;6.686;2023-03-25T01:21:34;96373.88;;;8.71;85.37
57594;BME280;43423;46.510;6.686;2023-03-25T01:24:05;96386.94;;;8.76;83.43
57594;BME280;43423;46.510;6.686;2023-03-25T01:26:32;96392.41;;;8.76;82.66
57594;BME280;43423;46.510;6.686;2023-03-25T01:28:58;96382.69;;;8.75;83.74
57594;BME280;43423;46.510;6.686;2023-03-25T01:31:24;96407.94;;;8.79;83.02
57594;BME280;43423;46.510;6.686;2023-03-25T01:33:57;96422.69;;;8.81;84.32
57594;BME280;43423;46.510;6.686;2023-03-25T01:36:24;96423.44;;;8.82;81.06
57594;BME280;43423;46.510;6.686;2023-03-25T01:38:54;96423.09;;;8.65;78.27
57594;BME280;43423;46.510;6.686;2023-03-25T01:41:22;96412.63;;;8.63;80.03
57594;BME280;43423;46.510;6.686;2023-03-25T01:44:03;96426.94;;;8.58;82.32
57594;BME280;43423;46.510;6.686;2023-03-25T01:46:28;96399.25;;;8.56;83.98
57594;BME280;43423;46.510;6.686;2023-03-25T01:48:55;96404.03;;;8.47;83.88
57594;BME280;43423;46.510;6.686;2023-03-25T01:51:26;96396.16;;;8.39;85.04
57594;BME280;43423;46.510;6.686;2023-03-25T01:53:53;96391.72;;;8.42;86.63
57594;BME280;43423;46.510;6.686;2023-03-25T01:56:24;96397.53;;;8.35;86.69
57594;BME280;43423;46.510;6.686;2023-03-25T01:58:50;96393.69;;;8.42;86.22
57594;BME280;43423;46.510;6.686;2023-03-25T02:01:19;96381.88;;;8.26;85.60
57594;BME280;43423;46.510;6.686;2023-03-25T02:03:50;96375.91;;;8.37;85.29
57594;BME280;43423;46.510;6.686;2023-03-25T02:06:24;96373.50;;;8.30;86.15
57594;BME280;43423;46.510;6.686;2023-03-25T02:08:55;96359.94;;;8.35;85.36
57594;BME280;43423;46.510;6.686;2023-03-25T02:11:21;96364.97;;;8.28;84.03
57594;BME280;43423;46.510;6.686;2023-03-25T02:13:50;96354.34;;;8.30;85.17
57594;BME280;43423;46.510;6.686;2023-03-25T02:16:52;96360.09;;;8.32;84.74
57594;BME280;43423;46.510;6.686;2023-03-25T02:25:31;96345.88;;;8.66;84.90
57594;BME280;43423;46.510;6.686;2023-03-25T02:28:21;96356.44;;;8.59;83.40
57594;BME280;43423;46.510;6.686;2023-03-25T02:38:37;96380.63;;;8.60;81.57
57594;BME280;43423;46.510;6.686;2023-03-25T02:41:33;96393.03;;;8.56;81.74
57594;BME280;43423;46.510;6.686;2023-03-25T02:46:30;96393.47;;;8.21;81.96
57594;BME280;43423;46.510;6.686;2023-03-25T02:49:07;96395.09;;;8.28;83.33
57594;BME280;43423;46.510;6.686;2023-03-25T02:51:40;96389.69;;;8.19;83.52
57594;BME280;43423;46.510;6.686;2023-03-25T02:54:11;96391.53;;;8.12;83.63
57594;BME280;43423;46.510;6.686;2023-03-25T02:56:40;96382.50;;;8.21;84.91
57594;BME280;43423;46.510;6.686;2023-03-25T02:59:07;96387.69;;;8.19;83.46
57594;BME280;43423;46.510;6.686;2023-03-25T03:01:34;96382.06;;;8.23;85.52
57594;BME280;43423;46.510;6.686;2023-03-25T03:04:00;96379.06;;;8.11;84.29
57594;BME280;43423;46.510;6.686;2023-03-25T03:06:27;96370.50;;;8.19;83.91
57594;BME280;43423;46.510;6.686;2023-03-25T03:09:09;96370.22;;;8.17;83.35
57594;BME280;43423;46.510;6.686;2023-03-25T03:12:03;96373.31;;;8.09;82.26
57594;BME280;43423;46.510;6.686;2023-03-25T03:23:15;96372.69;;;8.05;82.16
57594;BME280;43423;46.510;6.686;2023-03-25T03:25:55;96370.56;;;8.09;82.19
57594;BME280;43423;46.510;6.686;2023-03-25T03:28:26;96369.94;;;8.15;83.16
57594;BME280;43423;46.510;6.686;2023-03-25T03:33:30;96380.56;;;8.22;81.63
57594;BME280;43423;46.510;6.686;2023-03-25T03:36:00;96384.06;;;8.22;82.56
57594;BME280;43423;46.510;6.686;2023-03-25T03:38:35;96396.63;;;8.29;82.45
57594;BME280;43423;46.510;6.686;2023-03-25T03:41:08;96386.91;;;8.28;81.06
57594;BME280;43423;46.510;6.686;2023-03-25T03:43:49;96389.75;;;8.33;82.21
57594;BME280;43423;46.510;6.686;2023-03-25T03:46:21;96383.53;;;8.33;81.73
57594;BME280;43423;46.510;6.686;2023-03-25T03:48:53;96386.75;;;8.31;79.37
57594;BME280;43423;46.510;6.686;2023-03-25T03:51:39;96380.78;;;8.33;77.95
57594;BME280;43423;46.510;6.686;2023-03-25T03:54:12;96375.88;;;8.46;77.00
57594;BME280;43423;46.510;6.686;2023-03-25T03:56:43;96382.56;;;8.45;75.69
57594;BME280;43423;46.510;6.686;2023-03-25T04:01:56;96390.78;;;8.45;76.25
57594;BME280;43423;46.510;6.686;2023-03-25T04:04:24;96381.16;;;8.50;78.95
57594;BME280;43423;46.510;6.686;2023-03-25T04:07:01;96388.63;;;8.49;80.12
57594;BME280;43423;46.510;6.686;2023-03-25T04:09:37;96387.22;;;8.30;78.76
57594;BME280;43423;46.510;6.686;2023-03-25T04:12:15;96392.06;;;8.35;78.60
57594;BME280;43423;46.510;6.686;2023-03-25T04:14:43;96390.22;;;8.32;82.00
57594;BME280;43423;46.510;6.686;2023-03-25T04:17:09;96380.78;;;8.33;78.67
57594;BME280;43423;46.510;6.686;2023-03-25T04:19:35;96368.53;;;8.19;78.87
57594;BME280;43423;46.510;6.686;2023-03-25T04:22:02;96382.69;;;8.18;79.22
57594;BME280;43423;46.510;6.686;2023-03-25T04:24:28;96385.94;;;8.07;77.17
57594;BME280;43423;46.510;6.686;2023-03-25T04:26:57;96380.75;;;8.09;79.50
57594;BME280;43423;46.510;6.686;2023-03-25T04:29:24;96386.75;;;7.98;79.62
57594;BME280;43423;46.510;6.686;2023-03-25T04:31:50;96394.31;;;8.03;79.56
57594;BME280;43423;46.510;6.686;2023-03-25T04:34:19;96395.25;;;8.00;80.71
57594;BME280;43423;46.510;6.686;2023-03-25T04:36:44;96398.59;;;7.95;80.89
57594;BME280;43423;46.510;6.686;2023-03-25T04:39:11;96395.06;;;8.04;81.13
57594;BME280;43423;46.510;6.686;2023-03-25T04:41:37;96400.22;;;8.11;79.84
57594;BME280;43423;46.510;6.686;2023-03-25T04:44:04;96407.47;;;8.23;80.71
57594;BME280;43423;46.510;6.686;2023-03-25T04:46:32;96409.13;;;8.21;79.57
57594;BME280;43423;46.510;6.686;2023-03-25T04:48:59;96418.59;;;8.20;79.47
57594;BME280;43423;46.510;6.686;2023-03-25T04:51:27;96433.47;;;8.28;78.63
57594;BME280;43423;46.510;6.686;2023-03-25T04:53:54;96436.38;;;8.24;79.92
57594;BME280;43423;46.510;6.686;2023-03-25T04:56:20;96432.94;;;8.05;79.61
57594;BME280;43423;46.510;6.686;2023-03-25T04:58:47;96427.16;;;8.03;79.74
57594;BME280;43423;46.510;6.686;2023-03-25T05:01:25;96429.91;;;8.03;77.50
57594;BME280;43423;46.510;6.686;2023-03-25T05:04:01;96437.22;;;8.06;76.64
57594;BME280;43423;46.510;6.686;2023-03-25T05:06:32;96440.69;;;8.16;77.48
57594;BME280;43423;46.510;6.686;2023-03-25T05:09:02;96448.16;;;8.06;78.88
57594;BME280;43423;46.510;6.686;2023-03-25T05:11:30;96454.84;;;8.05;76.65
57594;BME280;43423;46.510;6.686;2023-03-25T05:13:56;96461.84;;;8.16;77.03
57594;BME280;43423;46.510;6.686;2023-03-25T05:16:21;96461.06;;;8.15;77.70
57594;BME280;43423;46.510;6.686;2023-03-25T05:18:47;96467.44;;;8.12;75.94
57594;BME280;43423;46.510;6.686;2023-03-25T05:21:13;96462.19;;;7.99;76.60
57594;BME280;43423;46.510;6.686;2023-03-25T05:23:39;96457.91;;;8.07;75.10
57594;BME280;43423;46.510;6.686;2023-03-25T05:26:06;96446.97;;;7.98;78.55
57594;BME280;43423;46.510;6.686;2023-03-25T05:28:33;96443.94;;;7.96;80.01
57594;BME280;43423;46.510;6.686;2023-03-25T05:31:00;96446.97;;;7.98;78.47
57594;BME280;43423;46.510;6.686;2023-03-25T05:33:26;96451.66;;;8.07;78.70
57594;BME280;43423;46.510;6.686;2023-03-25T05:35:51;96451.53;;;8.01;78.68
57594;BME280;43423;46.510;6.686;2023-03-25T05:38:17;96454.13;;;7.96;78.21
57594;BME280;43423;46.510;6.686;2023-03-25T05:40:45;96447.59;;;7.93;78.19
57594;BME280;43423;46.510;6.686;2023-03-25T05:43:13;96454.88;;;7.96;78.51
57594;BME280;43423;46.510;6.686;2023-03-25T05:45:42;96443.59;;;8.03;77.82
57594;BME280;43423;46.510;6.686;2023-03-25T05:48:09;96442.34;;;8.13;77.33
57594;BME280;43423;46.510;6.686;2023-03-25T05:50:36;96430.31;;;8.20;80.50
57594;BME280;43423;46.510;6.686;2023-03-25T05:53:03;96414.38;;;8.09;80.78
57594;BME280;43423;46.510;6.686;2023-03-25T05:55:28;96432.31;;;8.10;80.20
57594;BME280;43423;46.510;6.686;2023-03-25T05:57:54;96430.19;;;8.15;81.27
57594;BME280;43423;46.510;6.686;2023-03-25T06:00:22;96428.66;;;8.13;81.64
57594;BME280;43423;46.510;6.686;2023-03-25T06:02:48;96433.84;;;8.11;80.33
57594;BME280;43423;46.510;6.686;2023-03-25T06:05:14;96437.34;;;8.12;80.20
57594;BME280;43423;46.510;6.686;2023-03-25T06:07:42;96427.50;;;7.96;79.90
57594;BME280;43423;46.510;6.686;2023-03-25T06:10:10;96439.34;;;8.02;79.87
57594;BME280;43423;46.510;6.686;2023-03-25T06:12:35;96436.03;;;7.98;80.20
57594;BME280;43423;46.510;6.686;2023-03-25T06:15:05;96439.63;;;8.04;79.15
57594;BME280;43423;46.510;6.686;2023-03-25T06:17:32;96429.63;;;8.01;78.13
57594;BME280;43423;46.510;6.686;2023-03-25T06:19:57;96425.38;;;8.00;78.34
57594;BME280;43423;46.510;6.686;2023-03-25T06:22:24;96427.59;;;8.11;78.50
57594;BME280;43423;46.510;6.686;2023-03-25T06:24:50;96417.53;;;8.17;78.54
57594;BME280;43423;46.510;6.686;2023-03-25T06:27:18;96422.97;;;8.26;78.82
57594;BME280;43423;46.510;6.686;2023-03-25T06:29:44;96420.53;;;8.28;77.13
57594;BME280;43423;46.510;6.686;2023-03-25T06:32:12;96425.06;;;8.41;76.68
57594;BME280;43423;46.510;6.686;2023-03-25T06:34:38;96421.81;;;8.51;79.66
57594;BME280;43423;46.510;6.686;2023-03-25T06:37:07;96425.63;;;8.54;78.94
57594;BME280;43423;46.510;6.686;2023-03-25T06:39:33;96416.94;;;8.55;80.31
57594;BME280;43423;46.510;6.686;2023-03-25T06:42:03;96414.81;;;8.50;78.54
57594;BME280;43423;46.510;6.686;2023-03-25T06:44:29;96408.56;;;8.50;77.27
57594;BME280;43423;46.510;6.686;2023-03-25T06:46:55;96409.34;;;8.50;75.99
57594;BME280;43423;46.510;6.686;2023-03-25T06:49:20;96403.78;;;8.59;76.93
57594;BME280;43423;46.510;6.686;2023-03-25T06:51:46;96410.09;;;8.51;73.01
57594;BME280;43423;46.510;6.686;2023-03-25T06:54:12;96414.66;;;8.54;72.39
57594;BME280;43423;46.510;6.686;2023-03-25T06:56:37;96413.50;;;8.70;69.54
57594;BME280;43423;46.510;6.686;2023-03-25T06:59:03;96421.59;;;8.64;72.80
57594;BME280;43423;46.510;6.686;2023-03-25T07:01:29;96410.84;;;8.75;77.60
57594;BME280;43423;46.510;6.686;2023-03-25T07:03:55;96415.63;;;8.65;75.21
57594;BME280;43423;46.510;6.686;2023-03-25T07:06:21;96419.41;;;8.68;76.61
57594;BME280;43423;46.510;6.686;2023-03-25T07:08:48;96420.66;;;8.67;79.80
57594;BME280;43423;46.510;6.686;2023-03-25T07:11:15;96430.56;;;8.64;80.85
57594;BME280;43423;46.510;6.686;2023-03-25T07:13:41;96427.84;;;8.64;81.86
57594;BME280;43423;46.510;6.686;2023-03-25T07:16:07;96417.22;;;8.57;79.93
57594;BME280;43423;46.510;6.686;2023-03-25T07:18:33;96418.72;;;8.58;78.90
57594;BME280;43423;46.510;6.686;2023-03-25T07:20:59;96419.94;;;8.57;80.93
57594;BME280;43423;46.510;6.686;2023-03-25T07:23:24;96412.91;;;8.65;80.06
57594;BME280;43423;46.510;6.686;2023-03-25T07:25:50;96403.03;;;8.59;78.70
57594;BME280;43423;46.510;6.686;2023-03-25T07:28:16;96407.69;;;8.67;78.77
57594;BME280;43423;46.510;6.686;2023-03-25T07:30:41;96407.63;;;8.77;77.36
57594;BME280;43423;46.510;6.686;2023-03-25T07:33:07;96411.91;;;8.78;76.46
57594;BME280;43423;46.510;6.686;2023-03-25T07:35:32;96402.16;;;8.77;78.25
57594;BME280;43423;46.510;6.686;2023-03-25T07:37:58;96417.63;;;8.89;77.30
57594;BME280;43423;46.510;6.686;2023-03-25T07:40:23;96410.38;;;8.77;76.06
57594;BME280;43423;46.510;6.686;2023-03-25T07:42:49;96410.03;;;8.84;73.20
57594;BME280;43423;46.510;6.686;2023-03-25T07:45:15;96404.94;;;8.91;74.10
57594;BME280;43423;46.510;6.686;2023-03-25T07:47:40;96405.13;;;8.88;76.82
57594;BME280;43423;46.510;6.686;2023-03-25T07:50:06;96404.94;;;8.91;76.78
57594;BME280;43423;46.510;6.686;2023-03-25T07:52:32;96412.59;;;8.87;77.11
57594;BME280;43423;46.510;6.686;2023-03-25T07:54:58;96414.81;;;8.98;76.64
57594;BME280;43423;46.510;6.686;2023-03-25T07:57:25;96421.81;;;8.99;77.14
57594;BME280;43423;46.510;6.686;2023-03-25T07:59:50;96418.31;;;8.99;74.87
57594;BME280;43423;46.510;6.686;2023-03-25T08:02:16;96418.50;;;8.95;75.74
57594;BME280;43423;46.510;6.686;2023-03-25T08:04:42;96425.38;;;8.90;76.85
57594;BME280;43423;46.510;6.686;2023-03-25T08:07:07;96435.00;;;8.86;74.75
57594;BME280;43423;46.510;6.686;2023-03-25T08:09:33;96432.91;;;8.81;74.96
57594;BME280;43423;46.510;6.686;2023-03-25T08:11:59;96438.03;;;8.88;74.78
57594;BME280;43423;46.510;6.686;2023-03-25T08:14:24;96434.69;;;8.84;74.04
57594;BME280;43423;46.510;6.686;2023-03-25T08:16:50;96433.25;;;8.74;74.23
57594;BME280;43423;46.510;6.686;2023-03-25T08:19:15;96434.19;;;8.71;73.92
57594;BME280;43423;46.510;6.686;2023-03-25T08:21:41;96436.28;;;8.76;75.39
57594;BME280;43423;46.510;6.686;2023-03-25T08:24:06;96430.78;;;8.76;74.12
57594;BME280;43423;46.510;6.686;2023-03-25T08:26:33;96430.75;;;8.85;74.13
57594;BME280;43423;46.510;6.686;2023-03-25T08:29:00;96441.13;;;8.81;73.89
57594;BME280;43423;46.510;6.686;2023-03-25T08:31:28;96434.41;;;8.82;74.92
57594;BME280;43423;46.510;6.686;2023-03-25T08:33:59;96433.38;;;8.79;73.78
57594;BME280;43423;46.510;6.686;2023-03-25T08:36:25;96439.50;;;8.74;76.58
57594;BME280;43423;46.510;6.686;2023-03-25T08:38:52;96432.03;;;8.75;77.00
57594;BME280;43423;46.510;6.686;2023-03-25T08:41:17;96442.50;;;8.52;77.76
57594;BME280;43423;46.510;6.686;2023-03-25T08:43:43;96431.19;;;8.35;80.81
57594;BME280;43423;46.510;6.686;2023-03-25T08:46:09;96434.88;;;8.23;82.77
57594;BME280;43423;46.510;6.686;2023-03-25T08:48:35;96447.81;;;8.13;81.62
57594;BME280;43423;46.510;6.686;2023-03-25T08:51:01;96465.56;;;8.36;80.85
57594;BME280;43423;46.510;6.686;2023-03-25T08:53:27;96455.63;;;8.48;81.40
57594;BME280;43423;46.510;6.686;2023-03-25T08:55:54;96478.13;;;8.52;80.34
57594;BME280;43423;46.510;6.686;2023-03-25T08:58:20;96474.53;;;8.46;83.88
57594;BME280;43423;46.510;6.686;2023-03-25T09:00:48;96473.28;;;8.47;82.27
57594;BME280;43423;46.510;6.686;2023-03-25T09:03:14;96480.63;;;8.41;82.85
57594;BME280;43423;46.510;6.686;2023-03-25T09:05:40;96482.75;;;8.37;84.53
57594;BME280;43423;46.510;6.686;2023-03-25T09:08:06;96481.25;;;8.27;83.47
57594;BME280;43423;46.510;6.686;2023-03-25T09:10:31;96487.63;;;8.33;83.15
57594;BME280;43423;46.510;6.686;2023-03-25T09:12:57;96486.47;;;8.16;83.53
57594;BME280;43423;46.510;6.686;2023-03-25T09:15:23;96484.50;;;8.16;83.14
57594;BME280;43423;46.510;6.686;2023-03-25T09:17:48;96495.59;;;8.22;85.50
57594;BME280;43423;46.510;6.686;2023-03-25T09:20:14;96477.94;;;8.13;83.67
57594;BME280;43423;46.510;6.686;2023-03-25T09:22:40;96484.97;;;8.15;83.66
57594;BME280;43423;46.510;6.686;2023-03-25T09:25:06;96490.88;;;8.13;83.97
57594;BME280;43423;46.510;6.686;2023-03-25T09:27:32;96495.88;;;8.24;84.35
57594;BME280;43423;46.510;6.686;2023-03-25T09:29:58;96493.47;;;8.17;85.63
57594;BME280;43423;46.510;6.686;2023-03-25T09:32:23;96489.22;;;8.16;85.93
57594;BME280;43423;46.510;6.686;2023-03-25T09:34:50;96489.94;;;8.25;85.62
57594;BME280;43423;46.510;6.686;2023-03-25T09:37:16;96492.41;;;8.14;86.24
57594;BME280;43423;46.510;6.686;2023-03-25T09:39:42;96476.75;;;8.15;84.54
57594;BME280;43423;46.510;6.686;2023-03-25T09:47:57;96487.38;;;8.12;84.45
57594;BME280;43423;46.510;6.686;2023-03-25T09:50:25;96474.13;;;8.20;84.14
57594;BME280;43423;46.510;6.686;2023-03-25T09:55:39;96492.19;;;8.36;83.26
57594;BME280;43423;46.510;6.686;2023-03-25T09:59:27;96488.38;;;8.43;81.83
57594;BME280;43423;46.510;6.686;2023-03-25T10:01:36;96487.00;;;8.47;76.89
57594;BME280;43423;46.510;6.686;2023-03-25T10:07:04;96501.59;;;8.53;78.29
57594;BME280;43423;46.510;6.686;2023-03-25T10:15:21;96496.00;;;8.72;73.63
57594;BME280;43423;46.510;6.686;2023-03-25T10:25:50;96491.41;;;9.26;71.37
57594;BME280;43423;46.510;6.686;2023-03-25T10:28:19;96485.63;;;9.23;72.27
57594;BME280;43423;46.510;6.686;2023-03-25T10:30:50;96496.06;;;9.34;69.78
57594;BME280;43423;46.510;6.686;2023-03-25T10:33:34;96486.78;;;9.32;68.81
57594;BME280;43423;46.510;6.686;2023-03-25T10:36:02;96491.88;;;9.48;69.96
57594;BME280;43423;46.510;6.686;2023-03-25T10:38:29;96497.28;;;9.57;70.69
57594;BME280;43423;46.510;6.686;2023-03-25T10:43:43;96503.53;;;9.58;69.33
57594;BME280;43423;46.510;6.686;2023-03-25T10:46:30;96512.97;;;9.57;68.04
57594;BME280;43423;46.510;6.686;2023-03-25T10:48:59;96517.31;;;9.63;67.43
57594;BME280;43423;46.510;6.686;2023-03-25T10:51:27;96505.63;;;9.77;66.95
57594;BME280;43423;46.510;6.686;2023-03-25T10:53:54;96509.59;;;9.76;67.42
57594;BME280;43423;46.510;6.686;2023-03-25T10:56:34;96510.47;;;9.83;67.82
57594;BME280;43423;46.510;6.686;2023-03-25T10:59:05;96507.72;;;9.83;69.10
57594;BME280;43423;46.510;6.686;2023-03-25T11:01:41;96511.84;;;9.63;67.89
57594;BME280;43423;46.510;6.686;2023-03-25T11:04:13;96505.78;;;9.59;66.88
57594;BME280;43423;46.510;6.686;2023-03-25T11:06:44;96505.78;;;9.59;67.06
57594;BME280;43423;46.510;6.686;2023-03-25T11:09:22;96514.66;;;9.54;68.90
57594;BME280;43423;46.510;6.686;2023-03-25T11:11:48;96521.03;;;9.60;69.49
57594;BME280;43423;46.510;6.686;2023-03-25T11:14:14;96518.63;;;9.53;69.67
57594;BME280;43423;46.510;6.686;2023-03-25T11:16:42;96535.63;;;9.66;67.32
57594;BME280;43423;46.510;6.686;2023-03-25T11:19:25;96534.75;;;9.60;66.10
57594;BME280;43423;46.510;6.686;2023-03-25T11:21:54;96538.28;;;9.75;69.89
57594;BME280;43423;46.510;6.686;2023-03-25T11:24:22;96549.09;;;9.94;68.55
57594;BME280;43423;46.510;6.686;2023-03-25T11:26:52;96549.06;;;9.79;68.55
57594;BME280;43423;46.510;6.686;2023-03-25T11:29:19;96570.00;;;9.76;70.38
57594;BME280;43423;46.510;6.686;2023-03-25T11:32:14;96570.28;;;9.78;68.98
57594;BME280;43423;46.510;6.686;2023-03-25T11:34:46;96564.75;;;10.02;70.29
57594;BME280;43423;46.510;6.686;2023-03-25T11:37:19;96559.94;;;10.42;69.86
57594;BME280;43423;46.510;6.686;2023-03-25T11:39:52;96553.25;;;10.93;70.91
57594;BME280;43423;46.510;6.686;2023-03-25T11:42:35;96552.16;;;11.05;66.26
57594;BME280;43423;46.510;6.686;2023-03-25T11:45:04;96572.19;;;11.05;66.35
57594;BME280;43423;46.510;6.686;2023-03-25T11:47:37;96580.06;;;10.98;66.87
57594;BME280;43423;46.510;6.686;2023-03-25T11:50:04;96562.16;;;10.52;68.47
57594;BME280;43423;46.510;6.686;2023-03-25T11:52:43;96551.81;;;10.47;69.30
57594;BME280;43423;46.510;6.686;2023-03-25T11:55:16;96562.69;;;10.56;72.88
57594;BME280;43423;46.510;6.686;2023-03-25T11:57:44;96553.56;;;10.80;71.39
57594;BME280;43423;46.510;6.686;2023-03-25T12:02:58;96543.03;;;11.13;68.18
57594;BME280;43423;46.510;6.686;2023-03-25T12:05:25;96544.00;;;11.51;66.55
57594;BME280;43423;46.510;6.686;2023-03-25T12:08:00;96542.28;;;11.74;66.77
57594;BME280;43423;46.510;6.686;2023-03-25T12:10:52;96551.84;;;11.99;64.97
57594;BME280;43423;46.510;6.686;2023-03-25T12:16:07;96553.19;;;12.35;63.19
57594;BME280;43423;46.510;6.686;2023-03-25T12:18:59;96556.97;;;11.86;64.49
57594;BME280;43423;46.510;6.686;2023-03-25T12:32:25;96547.84;;;10.98;68.69
57594;BME280;43423;46.510;6.686;2023-03-25T12:35:14;96550.00;;;10.59;68.67
57594;BME280;43423;46.510;6.686;2023-03-25T12:43:58;96549.28;;;10.94;69.68
57594;BME280;43423;46.510;6.686;2023-03-25T12:49:40;96543.47;;;11.27;67.98
57594;BME280;43423;46.510;6.686;2023-03-25T12:52:24;96544.69;;;11.26;68.00
57594;BME280;43423;46.510;6.686;2023-03-25T12:58:41;96539.53;;;11.74;65.85
57594;BME280;43423;46.510;6.686;2023-03-25T13:01:12;96545.22;;;11.85;66.86
57594;BME280;43423;46.510;6.686;2023-03-25T13:03:55;96531.06;;;11.78;65.99
57594;BME280;43423;46.510;6.686;2023-03-25T13:11:58;96537.44;;;12.10;67.37
57594;BME280;43423;46.510;6.686;2023-03-25T13:14:38;96537.81;;;11.97;65.82
57594;BME280;43423;46.510;6.686;2023-03-25T13:17:12;96528.09;;;12.01;66.85
57594;BME280;43423;46.510;6.686;2023-03-25T13:19:42;96532.34;;;12.02;66.24
57594;BME280;43423;46.510;6.686;2023-03-25T13:22:17;96523.09;;;12.06;65.93
57594;BME280;43423;46.510;6.686;2023-03-25T13:24:57;96522.25;;;11.73;67.44
57594;BME280;43423;46.510;6.686;2023-03-25T13:27:24;96518.69;;;11.47;67.29
57594;BME280;43423;46.510;6.686;2023-03-25T13:29:56;96530.88;;;11.40;69.05
57594;BME280;43423;46.510;6.686;2023-03-25T13:32:33;96536.78;;;11.33;68.42
57594;BME280;43423;46.510;6.686;2023-03-25T13:35:12;96527.28;;;11.34;69.78
57594;BME280;43423;46.510;6.686;2023-03-25T13:37:45;96517.88;;;11.41;67.83
57594;BME280;43423;46.510;6.686;2023-03-25T13:43:19;96516.81;;;11.59;68.29
57594;BME280;43423;46.510;6.686;2023-03-25T13:46:12;96505.19;;;11.69;67.01
57594;BME280;43423;46.510;6.686;2023-03-25T13:51:18;96497.19;;;11.71;68.19
57594;BME280;43423;46.510;6.686;2023-03-25T13:56:54;96493.47;;;11.74;65.51
57594;BME280;43423;46.510;6.686;2023-03-25T14:10:48;96485.19;;;11.74;61.40
57594;BME280;43423;46.510;6.686;2023-03-25T14:13:25;96486.53;;;12.05;61.72
57594;BME280;43423;46.510;6.686;2023-03-25T14:16:05;96486.56;;;12.11;61.83
57594;BME280;43423;46.510;6.686;2023-03-25T14:18:40;96490.13;;;11.91;61.78
57594;BME280;43423;46.510;6.686;2023-03-25T14:26:34;96489.22;;;11.99;61.74
57594;BME280;43423;46.510;6.686;2023-03-25T14:29:07;96489.44;;;11.96;61.82
57594;BME280;43423;46.510;6.686;2023-03-25T14:31:34;96499.59;;;11.84;60.30
57594;BME280;43423;46.510;6.686;2023-03-25T14:41:59;96513.22;;;11.93;63.77
57594;BME280;43423;46.510;6.686;2023-03-25T14:44:31;96501.66;;;11.69;64.45
57594;BME280;43423;46.510;6.686;2023-03-25T14:49:52;96497.41;;;10.86;65.75
57594;BME280;43423;46.510;6.686;2023-03-25T14:52:29;96488.72;;;10.58;66.01
57594;BME280;43423;46.510;6.686;2023-03-25T14:54:58;96485.94;;;10.73;66.65
57594;BME280;43423;46.510;6.686;2023-03-25T14:57:28;96483.59;;;10.66;66.59
57594;BME280;43423;46.510;6.686;2023-03-25T15:00:04;96489.25;;;10.42;65.09
57594;BME280;43423;46.510;6.686;2023-03-25T15:02:42;96479.97;;;10.10;65.33
57594;BME280;43423;46.510;6.686;2023-03-25T15:05:17;96492.75;;;10.13;67.00
57594;BME280;43423;46.510;6.686;2023-03-25T15:07:52;96480.06;;;10.16;65.88
57594;BME280;43423;46.510;6.686;2023-03-25T15:10:27;96478.16;;;10.22;64.27
57594;BME280;43423;46.510;6.686;2023-03-25T15:13:06;96481.88;;;10.33;64.10
57594;BME280;43423;46.510;6.686;2023-03-25T15:18:55;96478.91;;;10.52;64.31
57594;BME280;43423;46.510;6.686;2023-03-25T15:26:27;96462.13;;;10.50;65.81
57594;BME280;43423;46.510;6.686;2023-03-25T15:29:07;96454.84;;;10.47;64.72
57594;BME280;43423;46.510;6.686;2023-03-25T15:32:00;96454.06;;;10.61;64.61
57594;BME280;43423;46.510;6.686;2023-03-25T15:38:01;96456.09;;;10.66;62.89
57594;BME280;43423;46.510;6.686;2023-03-25T15:41:15;96448.16;;;10.68;62.13
57594;BME280;43423;46.510;6.686;2023-03-25T15:46:31;96444.13;;;10.84;62.15
57594;BME280;43423;46.510;6.686;2023-03-25T15:54:38;96449.41;;;10.87;62.30